Terminal Aerodrome Forecast
Issued by NWS

Home | Current Version | Previous Version | Text Only | Print | Product List | Glossary On
Versions: 1 2 3 4 5 6 7 8 9 10 11 12 13 14 15 16 17 18 19 20 21 22 23 24 25 26 27 28 29 30
000
FTUS41 KBOX 262320
TAFFMH
TAF
KFMH 262320Z 2700/2724 01008KT P6SM BKN015
     FM270300 01005KT P6SM BKN025
     FM270500 36005KT P6SM BKN050
     FM271600 34006KT P6SM BKN060
     FM272300 32005KT P6SM BKN020=

USA.gov is the U.S. government's official web portal to all federal, state and local government web resources and services.